createdAt,value
2019-03-28T00:00:29.988Z,0.00
2019-03-28T00:01:29.979Z,0.00
2019-03-28T00:02:29.972Z,0.00
2019-03-28T00:03:29.964Z,0.00
2019-03-28T00:04:29.957Z,0.00
2019-03-28T00:05:29.950Z,0.00
2019-03-28T00:06:29.944Z,0.00
2019-03-28T00:07:29.934Z,0.00
2019-03-28T00:08:29.929Z,0.00
2019-03-28T00:09:29.921Z,0.00
2019-03-28T00:10:29.912Z,0.00
2019-03-28T00:11:29.908Z,0.00
2019-03-28T00:12:29.901Z,0.00
2019-03-28T00:13:30.188Z,0.00
2019-03-28T00:14:29.886Z,0.00
2019-03-28T00:15:29.881Z,0.00
2019-03-28T00:16:29.873Z,0.00
2019-03-28T00:17:29.865Z,0.00
2019-03-28T00:18:29.863Z,0.00
2019-03-28T00:19:57.582Z,0.00
2019-03-28T00:20:57.577Z,0.00
2019-03-28T00:21:57.571Z,0.00
2019-03-28T00:22:57.565Z,0.00
2019-03-28T00:23:57.560Z,0.00
2019-03-28T00:24:57.552Z,0.00
2019-03-28T00:25:57.543Z,0.00
2019-03-28T00:26:57.538Z,0.00
2019-03-28T00:27:57.531Z,0.00
2019-03-28T00:28:57.524Z,0.00
2019-03-28T00:29:57.520Z,0.00
2019-03-28T00:30:57.512Z,0.00
2019-03-28T00:31:57.509Z,0.00
2019-03-28T00:32:57.499Z,0.00
2019-03-28T00:33:57.492Z,0.00
2019-03-28T00:34:57.483Z,0.00
2019-03-28T00:35:57.476Z,0.00
2019-03-28T00:36:57.474Z,0.00
2019-03-28T00:37:57.665Z,0.00
2019-03-28T00:38:57.456Z,0.00
2019-03-28T00:39:57.451Z,0.00
2019-03-28T00:40:57.445Z,0.00
2019-03-28T00:41:57.438Z,0.00
2019-03-28T00:42:57.433Z,0.00
2019-03-28T00:43:57.451Z,0.00
2019-03-28T00:44:57.444Z,0.00
2019-03-28T00:45:57.524Z,0.00
2019-03-28T00:46:57.432Z,0.00
2019-03-28T00:47:57.423Z,0.00
2019-03-28T00:48:57.421Z,0.00
2019-03-28T00:49:57.410Z,0.00
2019-03-28T00:50:57.410Z,0.00
2019-03-28T00:51:57.398Z,0.00
2019-03-28T00:52:57.393Z,0.00
2019-03-28T00:53:57.386Z,0.00
2019-03-28T00:54:57.379Z,0.00
2019-03-28T00:55:57.373Z,0.00
2019-03-28T00:56:57.367Z,0.00
2019-03-28T00:57:57.360Z,0.00
2019-03-28T00:58:57.384Z,0.00
2019-03-28T00:59:57.574Z,0.00
2019-03-28T01:00:57.362Z,0.00
2019-03-28T01:01:57.355Z,0.00
2019-03-28T01:02:57.352Z,0.00
2019-03-28T01:03:57.343Z,0.00
2019-03-28T01:04:57.338Z,0.00
2019-03-28T01:05:57.332Z,0.00
2019-03-28T01:06:57.379Z,0.00
2019-03-28T01:07:57.316Z,0.00
2019-03-28T01:08:57.308Z,0.00
2019-03-28T01:09:57.411Z,0.00
2019-03-28T01:10:57.294Z,0.00
2019-03-28T01:11:57.287Z,0.00
2019-03-28T01:12:57.280Z,0.00
2019-03-28T01:13:57.272Z,0.00
2019-03-28T01:14:57.303Z,0.00
2019-03-28T01:15:57.262Z,0.00
2019-03-28T01:16:57.255Z,0.00
2019-03-28T01:17:57.251Z,0.00
2019-03-28T01:18:57.243Z,0.00
2019-03-28T01:19:57.245Z,0.00
2019-03-28T01:20:57.228Z,0.00
2019-03-28T01:21:57.221Z,0.00
2019-03-28T01:22:57.215Z,0.00
2019-03-28T01:23:57.207Z,0.00
2019-03-28T01:24:57.910Z,0.00
2019-03-28T01:25:57.194Z,0.00
2019-03-28T01:26:58.753Z,0.00
2019-03-28T01:27:57.201Z,0.00
2019-03-28T01:28:57.198Z,0.00
2019-03-28T01:29:57.287Z,0.00
2019-03-28T01:30:57.201Z,0.00
2019-03-28T01:31:57.195Z,0.00
2019-03-28T01:32:57.186Z,0.00
2019-03-28T01:33:57.181Z,0.00
2019-03-28T01:34:57.176Z,0.00
2019-03-28T01:35:57.168Z,0.00
2019-03-28T01:36:57.160Z,0.00
2019-03-28T01:37:57.152Z,0.00
2019-03-28T01:38:57.146Z,0.00
2019-03-28T01:39:57.139Z,0.00
2019-03-28T01:40:57.130Z,0.00
2019-03-28T01:41:57.125Z,0.00
2019-03-28T01:42:57.118Z,0.00
2019-03-28T01:43:57.115Z,0.00
2019-03-28T01:44:57.103Z,0.00
2019-03-28T01:45:57.096Z,0.00
2019-03-28T01:46:57.093Z,0.00
2019-03-28T01:47:57.083Z,0.00
2019-03-28T01:48:57.077Z,0.00
2019-03-28T01:49:57.078Z,0.00
2019-03-28T01:50:57.064Z,0.00
2019-03-28T01:51:57.057Z,0.00
2019-03-28T01:52:57.049Z,0.00
2019-03-28T01:54:24.769Z,0.00
2019-03-28T01:55:24.772Z,0.00
2019-03-28T01:56:25.182Z,0.00
2019-03-28T01:57:24.752Z,0.00
2019-03-28T01:58:24.747Z,0.00
2019-03-28T01:59:24.739Z,0.00
2019-03-28T02:00:24.733Z,0.00
2019-03-28T02:01:24.727Z,0.00
2019-03-28T02:02:24.719Z,0.00
2019-03-28T02:03:24.714Z,0.00
2019-03-28T02:04:24.705Z,0.00
2019-03-28T02:05:24.701Z,0.00
2019-03-28T02:06:24.694Z,0.00
2019-03-28T02:07:25.204Z,0.00
2019-03-28T02:08:25.047Z,0.00
2019-03-28T02:09:24.694Z,0.00
2019-03-28T02:10:24.685Z,0.00
2019-03-28T02:11:24.680Z,0.00
2019-03-28T02:12:24.671Z,0.00
2019-03-28T02:13:24.685Z,0.00
2019-03-28T02:14:24.678Z,0.00
2019-03-28T02:15:24.671Z,0.00
2019-03-28T02:16:24.667Z,0.00
2019-03-28T02:17:24.660Z,0.00
2019-03-28T02:18:24.652Z,0.00
2019-03-28T02:19:24.645Z,0.00
2019-03-28T02:20:24.637Z,0.00
2019-03-28T02:21:24.631Z,0.00
2019-03-28T02:22:24.623Z,0.00
2019-03-28T02:23:24.615Z,0.00
2019-03-28T02:24:24.608Z,0.00
2019-03-28T02:25:24.600Z,0.00
2019-03-28T02:26:24.594Z,0.00
2019-03-28T02:27:24.755Z,0.00
2019-03-28T02:28:24.583Z,0.00
2019-03-28T02:29:24.574Z,0.00
2019-03-28T02:30:24.954Z,0.00
2019-03-28T02:31:24.564Z,0.00
2019-03-28T02:32:24.554Z,0.00
2019-03-28T02:33:25.485Z,0.00
2019-03-28T02:34:24.585Z,0.00
2019-03-28T02:35:24.582Z,0.00
2019-03-28T02:36:24.571Z,0.00
2019-03-28T02:37:24.567Z,0.00
2019-03-28T02:38:24.564Z,0.00
2019-03-28T02:39:24.786Z,0.00
2019-03-28T02:40:24.546Z,0.00
2019-03-28T02:41:24.538Z,0.00
2019-03-28T02:42:24.536Z,0.00
2019-03-28T02:43:24.523Z,0.00
2019-03-28T02:44:24.517Z,0.00
2019-03-28T02:45:24.511Z,0.00
2019-03-28T02:46:24.507Z,0.00
2019-03-28T02:47:24.515Z,0.00
2019-03-28T02:48:24.492Z,0.00
2019-03-28T02:49:24.501Z,0.00
2019-03-28T02:50:24.488Z,0.00
2019-03-28T02:51:24.483Z,0.00
2019-03-28T02:52:24.462Z,0.00
2019-03-28T02:53:24.455Z,0.00
2019-03-28T02:54:24.461Z,0.00
2019-03-28T02:55:24.470Z,0.00
2019-03-28T02:56:24.458Z,0.00
2019-03-28T02:57:39.585Z,0.00
2019-03-28T02:58:52.172Z,0.00
2019-03-28T02:59:52.170Z,0.00
2019-03-28T03:00:52.163Z,0.00
2019-03-28T03:01:52.357Z,0.00
2019-03-28T03:02:52.154Z,0.00
2019-03-28T03:03:52.180Z,0.00
2019-03-28T03:04:52.142Z,0.00
2019-03-28T03:05:52.139Z,0.00
2019-03-28T03:06:52.126Z,0.00
2019-03-28T03:07:52.122Z,0.00
2019-03-28T03:08:52.114Z,0.00
2019-03-28T03:09:52.109Z,0.00
2019-03-28T03:10:52.109Z,0.00
2019-03-28T03:12:52.085Z,0.00
2019-03-28T03:13:52.079Z,0.00
2019-03-28T03:14:52.075Z,0.00
2019-03-28T03:15:52.073Z,0.00
2019-03-28T03:16:52.060Z,0.00
2019-03-28T03:17:52.050Z,0.00
2019-03-28T03:18:52.044Z,0.00
2019-03-28T03:19:52.069Z,0.00
2019-03-28T03:20:52.062Z,0.00
2019-03-28T03:21:52.058Z,0.00
2019-03-28T03:22:52.053Z,0.00
2019-03-28T03:24:52.035Z,0.00
2019-03-28T03:25:52.030Z,0.00
2019-03-28T03:26:52.025Z,0.00
2019-03-28T03:27:58.321Z,0.00
2019-03-28T03:29:19.738Z,0.00
2019-03-28T03:30:19.740Z,0.00
2019-03-28T03:31:21.424Z,0.00
2019-03-28T03:32:19.741Z,0.00
2019-03-28T03:33:19.720Z,0.00
2019-03-28T03:34:19.726Z,0.00
2019-03-28T03:35:19.706Z,0.00
2019-03-28T03:36:19.702Z,0.00
2019-03-28T03:37:19.697Z,0.00
2019-03-28T03:39:19.696Z,0.00
2019-03-28T03:40:19.675Z,0.00
2019-03-28T03:41:19.730Z,0.00
2019-03-28T03:42:19.658Z,0.00
2019-03-28T03:43:19.650Z,0.00
2019-03-28T03:44:19.643Z,0.00
2019-03-28T03:45:19.635Z,0.00
2019-03-28T03:46:19.752Z,0.00
2019-03-28T03:47:19.909Z,0.00
2019-03-28T03:48:19.631Z,0.00
2019-03-28T03:49:19.625Z,0.00
2019-03-28T03:50:19.611Z,0.00
2019-03-28T03:51:19.610Z,0.00
2019-03-28T03:52:19.593Z,0.00
2019-03-28T03:53:19.589Z,0.00
2019-03-28T03:54:19.577Z,0.00
2019-03-28T03:55:19.572Z,0.00
2019-03-28T03:56:19.574Z,0.00
2019-03-28T03:57:19.559Z,0.00
2019-03-28T03:58:19.571Z,0.00
2019-03-28T03:59:19.546Z,0.00
2019-03-28T04:00:19.536Z,0.00
2019-03-28T04:01:19.532Z,0.00
2019-03-28T04:02:19.525Z,0.00
2019-03-28T04:03:19.522Z,0.00
2019-03-28T04:04:19.515Z,0.00
2019-03-28T04:05:19.502Z,0.00
2019-03-28T04:06:19.513Z,0.00
2019-03-28T04:07:19.489Z,0.00
2019-03-28T04:08:19.621Z,0.00
2019-03-28T04:09:19.478Z,0.00
2019-03-28T04:10:19.479Z,0.00
2019-03-28T04:11:19.765Z,0.00
2019-03-28T04:12:19.457Z,0.00
2019-03-28T04:13:19.453Z,0.00
2019-03-28T04:14:19.450Z,0.00
2019-03-28T04:15:19.452Z,0.00
2019-03-28T04:16:19.444Z,0.00
2019-03-28T04:17:19.505Z,0.00
2019-03-28T04:19:19.420Z,0.00
2019-03-28T04:20:19.416Z,0.00
2019-03-28T04:21:19.408Z,0.00
2019-03-28T04:22:19.402Z,0.00
2019-03-28T04:23:19.394Z,0.00
2019-03-28T04:24:19.387Z,0.00
2019-03-28T04:25:19.386Z,0.00
2019-03-28T04:26:19.374Z,0.00
2019-03-28T04:27:19.417Z,0.00
2019-03-28T04:28:31.469Z,0.00
2019-03-28T04:29:47.102Z,0.00
2019-03-28T04:30:47.129Z,0.00
2019-03-28T04:31:47.117Z,0.00
2019-03-28T04:32:47.081Z,0.00
2019-03-28T04:33:47.071Z,0.00
2019-03-28T04:34:47.066Z,0.00
2019-03-28T04:35:47.086Z,0.00
2019-03-28T04:36:47.054Z,0.00
2019-03-28T04:37:47.048Z,0.00
2019-03-28T04:38:47.046Z,0.00
2019-03-28T04:39:47.033Z,0.00
2019-03-28T04:40:47.027Z,0.00
2019-03-28T04:41:47.021Z,0.00
2019-03-28T04:42:47.017Z,0.00
2019-03-28T04:43:47.009Z,0.00
2019-03-28T04:44:47.000Z,0.00
2019-03-28T04:45:46.994Z,0.00
2019-03-28T04:46:46.991Z,0.00
2019-03-28T04:47:46.984Z,0.00
2019-03-28T04:48:46.976Z,0.00
2019-03-28T04:49:46.968Z,0.00
2019-03-28T04:50:46.962Z,0.00
2019-03-28T04:51:46.954Z,0.00
2019-03-28T04:52:46.949Z,0.00
2019-03-28T04:53:46.942Z,0.00
2019-03-28T04:54:46.935Z,0.00
2019-03-28T04:55:47.322Z,0.00
2019-03-28T04:56:46.922Z,0.00
2019-03-28T04:57:46.915Z,0.00
2019-03-28T04:58:46.910Z,0.00
2019-03-28T04:59:46.922Z,0.00
2019-03-28T05:00:46.914Z,0.00
2019-03-28T05:01:59.737Z,0.00
2019-03-28T05:03:14.628Z,0.00
2019-03-28T05:04:15.287Z,0.00
2019-03-28T05:05:14.615Z,0.00
2019-03-28T05:06:14.610Z,0.00
2019-03-28T05:07:14.601Z,0.00
2019-03-28T05:08:14.594Z,0.00
2019-03-28T05:09:14.589Z,0.00
2019-03-28T05:10:15.339Z,0.00
2019-03-28T05:11:14.596Z,0.00
2019-03-28T05:12:14.594Z,0.00
2019-03-28T05:13:14.583Z,0.00
2019-03-28T05:14:14.576Z,0.00
2019-03-28T05:15:14.572Z,0.00
2019-03-28T05:16:14.563Z,0.00
2019-03-28T05:17:14.624Z,0.00
2019-03-28T05:18:14.550Z,0.00
2019-03-28T05:19:14.545Z,0.00
2019-03-28T05:20:15.089Z,0.00
2019-03-28T05:21:14.542Z,0.00
2019-03-28T05:22:14.524Z,0.00
2019-03-28T05:23:14.544Z,0.00
2019-03-28T05:24:14.517Z,0.00
2019-03-28T05:25:14.507Z,0.00
2019-03-28T05:26:15.442Z,0.00
2019-03-28T05:27:16.579Z,0.00
2019-03-28T05:28:14.484Z,0.00
2019-03-28T05:29:14.479Z,0.00
2019-03-28T05:30:14.472Z,0.00
2019-03-28T05:31:14.473Z,0.00
2019-03-28T05:32:14.459Z,0.00
2019-03-28T05:33:14.452Z,0.00
2019-03-28T05:34:14.442Z,0.00
2019-03-28T05:35:14.438Z,0.00
2019-03-28T05:36:14.428Z,0.00
2019-03-28T05:37:14.422Z,0.00
2019-03-28T05:38:14.415Z,5.62
2019-03-28T05:39:14.404Z,5.62
2019-03-28T05:40:14.399Z,5.62
2019-03-28T05:41:17.291Z,5.62
2019-03-28T05:42:14.387Z,5.62
2019-03-28T05:43:14.381Z,5.62
2019-03-28T05:44:14.373Z,5.62
2019-03-28T05:45:14.368Z,5.62
2019-03-28T05:46:14.361Z,5.62
2019-03-28T05:47:14.357Z,5.62
2019-03-28T05:48:14.348Z,5.62
2019-03-28T05:49:14.548Z,5.62
2019-03-28T05:50:14.349Z,5.62
2019-03-28T05:51:14.342Z,5.62
2019-03-28T05:52:14.335Z,5.62
2019-03-28T05:53:14.328Z,5.62
2019-03-28T05:54:14.328Z,11.25
2019-03-28T05:55:14.320Z,11.25
2019-03-28T05:56:14.310Z,11.25
2019-03-28T05:57:14.305Z,11.25
2019-03-28T05:58:14.299Z,11.25
2019-03-28T05:59:14.292Z,11.25
2019-03-28T06:00:14.285Z,11.25
2019-03-28T06:01:14.276Z,11.25
2019-03-28T06:02:14.271Z,11.25
2019-03-28T06:03:14.266Z,11.25
2019-03-28T06:04:14.260Z,11.25
2019-03-28T06:05:14.255Z,16.87
2019-03-28T06:06:14.245Z,16.87
2019-03-28T06:07:14.239Z,16.87
2019-03-28T06:08:14.230Z,16.87
2019-03-28T06:09:14.226Z,16.87
2019-03-28T06:10:16.320Z,16.87
2019-03-28T06:11:14.211Z,16.87
2019-03-28T06:12:14.206Z,16.87
2019-03-28T06:13:14.200Z,16.87
2019-03-28T06:14:14.191Z,16.87
2019-03-28T06:15:14.186Z,16.87
2019-03-28T06:16:14.181Z,16.87
2019-03-28T06:17:14.176Z,16.87
2019-03-28T06:18:14.175Z,16.87
2019-03-28T06:19:14.160Z,16.87
2019-03-28T06:20:14.155Z,16.87
2019-03-28T06:21:14.148Z,16.87
2019-03-28T06:22:14.143Z,16.87
2019-03-28T06:23:14.136Z,16.87
2019-03-28T06:24:14.128Z,16.87
2019-03-28T06:25:14.128Z,16.87
2019-03-28T06:26:15.575Z,16.87
2019-03-28T06:27:14.127Z,22.50
2019-03-28T06:28:14.118Z,22.50
2019-03-28T06:29:23.807Z,22.50
2019-03-28T06:30:42.259Z,22.50
2019-03-28T06:31:54.778Z,22.50
2019-03-28T06:33:10.325Z,22.50
2019-03-28T06:34:10.326Z,22.50
2019-03-28T06:35:10.327Z,22.50
2019-03-28T06:36:10.719Z,22.50
2019-03-28T06:37:10.927Z,22.50
2019-03-28T06:38:10.301Z,22.50
2019-03-28T06:39:10.318Z,22.50
2019-03-28T06:40:10.310Z,22.50
2019-03-28T06:41:10.306Z,22.50
2019-03-28T06:42:10.297Z,28.12
2019-03-28T06:43:10.292Z,28.12
2019-03-28T06:44:10.289Z,28.12
2019-03-28T06:45:10.279Z,28.12
2019-03-28T06:46:10.273Z,28.12
2019-03-28T06:47:10.265Z,28.12
2019-03-28T06:48:10.260Z,28.12
2019-03-28T06:49:10.252Z,33.75
2019-03-28T06:50:10.250Z,33.75
2019-03-28T06:51:10.389Z,33.75
2019-03-28T06:52:10.233Z,33.75
2019-03-28T06:53:10.227Z,39.37
2019-03-28T06:54:10.218Z,39.37
2019-03-28T06:55:10.211Z,39.37
2019-03-28T06:56:10.205Z,33.75
2019-03-28T06:57:10.197Z,33.75
2019-03-28T06:58:10.192Z,33.75
2019-03-28T06:59:10.187Z,33.75
2019-03-28T07:00:10.177Z,33.75
2019-03-28T07:01:10.172Z,28.12
2019-03-28T07:02:10.166Z,28.12
2019-03-28T07:03:10.162Z,28.12
2019-03-28T07:04:10.156Z,28.12
2019-03-28T07:05:10.147Z,28.12
2019-03-28T07:06:10.147Z,28.12
2019-03-28T07:07:10.131Z,28.12
2019-03-28T07:08:10.126Z,28.12
2019-03-28T07:09:10.122Z,33.75
2019-03-28T07:10:10.912Z,33.75
2019-03-28T07:11:10.108Z,33.75
2019-03-28T07:12:10.099Z,33.75
2019-03-28T07:13:10.427Z,39.37
2019-03-28T07:14:10.087Z,39.37
2019-03-28T07:15:10.081Z,39.37
2019-03-28T07:16:10.073Z,39.37
2019-03-28T07:17:10.067Z,39.37
2019-03-28T07:18:10.059Z,39.37
2019-03-28T07:19:10.051Z,39.37
2019-03-28T07:20:10.053Z,45.00
2019-03-28T07:21:10.036Z,45.00
2019-03-28T07:22:10.373Z,45.00
2019-03-28T07:23:10.023Z,45.00
2019-03-28T07:24:10.019Z,45.00
2019-03-28T07:25:10.008Z,50.62
2019-03-28T07:26:10.001Z,50.62
2019-03-28T07:27:09.997Z,50.62
2019-03-28T07:28:09.988Z,56.25
2019-03-28T07:29:09.980Z,56.25
2019-03-28T07:30:09.978Z,56.25
2019-03-28T07:31:09.968Z,61.87
2019-03-28T07:32:09.961Z,61.87
2019-03-28T07:33:09.951Z,67.50
2019-03-28T07:34:09.945Z,67.50
2019-03-28T07:35:09.938Z,67.50
2019-03-28T07:36:09.930Z,67.50
2019-03-28T07:37:09.926Z,73.12
2019-03-28T07:38:09.919Z,73.12
2019-03-28T07:39:09.915Z,73.12
2019-03-28T07:40:09.909Z,78.75
2019-03-28T07:41:09.911Z,78.75
2019-03-28T07:42:09.912Z,78.75
2019-03-28T07:43:09.905Z,78.75
2019-03-28T07:44:10.360Z,84.37
2019-03-28T07:45:10.550Z,84.37
2019-03-28T07:46:09.883Z,90.00
2019-03-28T07:47:09.880Z,90.00
2019-03-28T07:48:09.870Z,90.00
2019-03-28T07:49:10.066Z,90.00
2019-03-28T07:50:09.857Z,95.62
2019-03-28T07:51:09.850Z,95.62
2019-03-28T07:52:09.844Z,95.62
2019-03-28T07:53:09.834Z,101.25
2019-03-28T07:54:09.830Z,101.25
2019-03-28T07:55:09.972Z,106.87
2019-03-28T07:56:09.837Z,106.87
2019-03-28T07:57:09.830Z,112.50
2019-03-28T07:58:09.826Z,112.50
2019-03-28T07:59:09.821Z,118.12
2019-03-28T08:00:09.814Z,118.12
2019-03-28T08:01:09.807Z,118.12
2019-03-28T08:02:09.799Z,123.75
2019-03-28T08:03:09.796Z,129.37
2019-03-28T08:04:12.259Z,140.62
2019-03-28T08:05:09.781Z,163.12
2019-03-28T08:06:12.579Z,146.25
2019-03-28T08:07:09.765Z,146.25
2019-03-28T08:08:09.759Z,151.87
2019-03-28T08:09:09.753Z,146.25
2019-03-28T08:10:09.746Z,146.25
2019-03-28T08:11:09.743Z,146.25
2019-03-28T08:12:21.891Z,151.87
2019-03-28T08:13:37.457Z,151.87
2019-03-28T08:14:37.452Z,151.87
2019-03-28T08:15:37.447Z,157.50
2019-03-28T08:16:37.441Z,157.50
2019-03-28T08:17:37.434Z,157.50
2019-03-28T08:18:37.428Z,151.87
2019-03-28T08:19:38.729Z,151.87
2019-03-28T08:20:37.415Z,151.87
2019-03-28T08:21:37.413Z,151.87
2019-03-28T08:22:37.404Z,151.87
2019-03-28T08:23:37.398Z,151.87
2019-03-28T08:24:37.400Z,151.87
2019-03-28T08:25:37.380Z,146.25
2019-03-28T08:26:37.399Z,146.25
2019-03-28T08:27:37.395Z,140.62
2019-03-28T08:28:37.389Z,135.00
2019-03-28T08:29:37.375Z,129.37
2019-03-28T08:30:37.368Z,129.37
2019-03-28T08:31:40.567Z,123.75
2019-03-28T08:32:39.874Z,123.75
2019-03-28T08:33:37.349Z,129.37
2019-03-28T08:34:37.346Z,129.37
2019-03-28T08:35:37.335Z,129.37
2019-03-28T08:36:37.330Z,129.37
2019-03-28T08:37:37.323Z,129.37
2019-03-28T08:38:37.318Z,129.37
2019-03-28T08:39:37.315Z,129.37
2019-03-28T08:40:39.603Z,135.00
2019-03-28T08:41:37.296Z,146.25
2019-03-28T08:42:37.289Z,151.87
2019-03-28T08:43:37.304Z,151.87
2019-03-28T08:44:37.275Z,151.87
2019-03-28T08:45:37.270Z,157.50
2019-03-28T08:46:37.261Z,168.75
2019-03-28T08:47:37.257Z,174.37
2019-03-28T08:48:37.247Z,185.62
2019-03-28T08:49:37.246Z,191.25
2019-03-28T08:50:37.237Z,191.25
2019-03-28T08:51:37.231Z,225.00
2019-03-28T08:52:37.224Z,208.12
2019-03-28T08:53:37.257Z,208.12
2019-03-28T08:54:37.234Z,225.00
2019-03-28T08:55:37.241Z,236.25
2019-03-28T08:56:37.222Z,258.75
2019-03-28T08:57:37.216Z,275.62
2019-03-28T08:58:38.329Z,258.75
2019-03-28T08:59:37.204Z,270.00
2019-03-28T09:00:51.056Z,270.00
2019-03-28T09:01:39.190Z,236.25
2019-03-28T09:02:37.188Z,241.87
2019-03-28T09:03:37.179Z,236.25
2019-03-28T09:04:37.173Z,219.37
2019-03-28T09:05:37.167Z,219.37
2019-03-28T09:06:37.160Z,208.12
2019-03-28T09:07:37.153Z,208.12
2019-03-28T09:08:37.148Z,208.12
2019-03-28T09:09:37.144Z,208.12
2019-03-28T09:10:37.138Z,208.12
2019-03-28T09:11:37.132Z,202.50
2019-03-28T09:12:37.125Z,196.87
2019-03-28T09:13:37.119Z,191.25
2019-03-28T09:14:37.117Z,191.25
2019-03-28T09:15:43.524Z,185.62
2019-03-28T09:17:04.855Z,180.00
2019-03-28T09:18:04.848Z,180.00
2019-03-28T09:19:04.842Z,180.00
2019-03-28T09:20:04.839Z,180.00
2019-03-28T09:21:04.832Z,180.00
2019-03-28T09:22:04.823Z,174.37
2019-03-28T09:23:04.816Z,174.37
2019-03-28T09:24:04.813Z,168.75
2019-03-28T09:25:04.803Z,163.12
2019-03-28T09:26:04.935Z,163.12
2019-03-28T09:27:04.807Z,174.37
2019-03-28T09:28:04.788Z,163.12
2019-03-28T09:29:04.787Z,168.75
2019-03-28T09:30:04.778Z,180.00
2019-03-28T09:31:04.773Z,196.87
2019-03-28T09:32:04.765Z,258.75
2019-03-28T09:33:04.760Z,337.50
2019-03-28T09:34:04.753Z,376.87
2019-03-28T09:35:04.746Z,483.75
2019-03-28T09:36:04.740Z,433.12
2019-03-28T09:37:04.733Z,613.12
2019-03-28T09:38:04.728Z,489.37
2019-03-28T09:39:04.721Z,438.75
2019-03-28T09:40:04.716Z,517.50
2019-03-28T09:41:04.712Z,365.62
2019-03-28T09:42:04.707Z,360.00
2019-03-28T09:43:04.697Z,376.87
2019-03-28T09:44:04.691Z,382.50
2019-03-28T09:45:04.685Z,421.87
2019-03-28T09:46:04.678Z,444.37
2019-03-28T09:47:04.672Z,360.00
2019-03-28T09:48:04.667Z,393.75
2019-03-28T09:49:04.659Z,450.00
2019-03-28T09:50:04.650Z,421.87
2019-03-28T09:51:04.644Z,393.75
2019-03-28T09:52:04.637Z,410.62
2019-03-28T09:53:04.631Z,405.00
2019-03-28T09:54:04.623Z,331.87
2019-03-28T09:55:04.621Z,354.37
2019-03-28T09:56:04.613Z,376.87
2019-03-28T09:57:04.607Z,393.75
2019-03-28T09:58:04.599Z,393.75
2019-03-28T09:59:04.594Z,382.50
2019-03-28T10:00:04.584Z,399.37
2019-03-28T10:01:04.578Z,478.12
2019-03-28T10:02:04.626Z,483.75
2019-03-28T10:03:04.585Z,528.75
2019-03-28T10:04:06.451Z,528.75
2019-03-28T10:05:04.550Z,551.25
2019-03-28T10:06:04.545Z,540.00
2019-03-28T10:07:05.619Z,596.25
2019-03-28T10:08:04.533Z,725.62
2019-03-28T10:09:04.526Z,624.37
2019-03-28T10:10:05.374Z,669.37
2019-03-28T10:11:04.513Z,691.87
2019-03-28T10:12:04.510Z,652.50
2019-03-28T10:13:04.503Z,658.12
2019-03-28T10:14:04.496Z,551.25
2019-03-28T10:15:04.492Z,680.62
2019-03-28T10:16:04.484Z,714.37
2019-03-28T10:17:04.479Z,658.12
2019-03-28T10:18:04.478Z,534.37
2019-03-28T10:19:04.467Z,472.50
2019-03-28T10:20:05.753Z,388.12
2019-03-28T10:21:04.453Z,900.00
2019-03-28T10:22:04.449Z,759.37
2019-03-28T10:23:04.442Z,601.87
2019-03-28T10:24:04.440Z,376.87
2019-03-28T10:25:04.455Z,270.00
2019-03-28T10:26:04.449Z,247.50
2019-03-28T10:27:04.440Z,236.25
2019-03-28T10:28:04.437Z,219.37
2019-03-28T10:29:04.430Z,196.87
2019-03-28T10:30:04.426Z,185.62
2019-03-28T10:31:15.740Z,163.12
2019-03-28T10:32:32.450Z,157.50
2019-03-28T10:33:32.134Z,157.50
2019-03-28T10:34:32.131Z,146.25
2019-03-28T10:35:32.123Z,146.25
2019-03-28T10:36:32.115Z,135.00
2019-03-28T10:37:32.109Z,135.00
2019-03-28T10:38:32.106Z,135.00
2019-03-28T10:39:32.098Z,135.00
2019-03-28T10:40:32.087Z,135.00
2019-03-28T10:41:32.082Z,123.75
2019-03-28T10:42:32.081Z,123.75
2019-03-28T10:43:32.072Z,129.37
2019-03-28T10:44:32.064Z,129.37
2019-03-28T10:45:33.564Z,129.37
2019-03-28T10:46:32.051Z,129.37
2019-03-28T10:47:32.043Z,140.62
2019-03-28T10:48:32.043Z,129.37
2019-03-28T10:49:32.029Z,135.00
2019-03-28T10:50:40.800Z,157.50
2019-03-28T10:51:59.743Z,146.25
2019-03-28T10:52:59.741Z,95.62
2019-03-28T10:53:59.735Z,123.75
2019-03-28T10:54:59.729Z,135.00
2019-03-28T10:55:59.839Z,135.00
2019-03-28T10:57:12.860Z,135.00
2019-03-28T10:58:27.438Z,146.25
2019-03-28T10:59:27.436Z,129.37
2019-03-28T11:00:27.428Z,146.25
2019-03-28T11:01:46.976Z,135.00
2019-03-28T11:02:55.276Z,129.37
2019-03-28T11:03:55.155Z,146.25
2019-03-28T11:04:55.132Z,135.00
2019-03-28T11:05:55.128Z,146.25
2019-03-28T11:06:55.122Z,135.00
2019-03-28T11:07:55.124Z,95.62
2019-03-28T11:08:55.108Z,67.50
2019-03-28T11:09:55.281Z,106.87
2019-03-28T11:10:55.107Z,106.87
2019-03-28T11:11:55.098Z,112.50
2019-03-28T11:12:55.093Z,118.12
2019-03-28T11:13:55.086Z,106.87
2019-03-28T11:14:55.081Z,101.25
2019-03-28T11:15:55.074Z,106.87
2019-03-28T11:16:55.873Z,101.25
2019-03-28T11:17:55.062Z,112.50
2019-03-28T11:18:55.056Z,123.75
2019-03-28T11:19:56.162Z,90.00
2019-03-28T11:20:55.046Z,106.87
2019-03-28T11:21:55.042Z,84.37
2019-03-28T11:22:55.035Z,67.50
2019-03-28T11:23:55.028Z,78.75
2019-03-28T11:24:55.031Z,95.62
2019-03-28T11:25:57.337Z,84.37
2019-03-28T11:26:55.027Z,73.12
2019-03-28T11:27:55.021Z,73.12
2019-03-28T11:28:55.014Z,101.25
2019-03-28T11:29:55.007Z,84.37
2019-03-28T11:30:55.000Z,112.50
2019-03-28T11:31:54.994Z,112.50
2019-03-28T11:32:54.986Z,101.25
2019-03-28T11:33:54.980Z,101.25
2019-03-28T11:34:54.977Z,95.62
2019-03-28T11:35:54.967Z,95.62
2019-03-28T11:36:54.964Z,95.62
2019-03-28T11:37:54.957Z,90.00
2019-03-28T11:38:55.125Z,90.00
2019-03-28T11:39:54.942Z,106.87
2019-03-28T11:40:54.939Z,101.25
2019-03-28T11:41:54.932Z,90.00
2019-03-28T11:42:54.923Z,78.75
2019-03-28T11:43:54.915Z,73.12
2019-03-28T11:44:54.909Z,73.12
2019-03-28T11:45:54.903Z,78.75
2019-03-28T11:46:54.899Z,84.37
2019-03-28T11:47:54.890Z,84.37
2019-03-28T11:48:54.885Z,95.62
2019-03-28T11:49:55.864Z,95.62
2019-03-28T11:50:54.870Z,101.25
2019-03-28T11:51:54.864Z,101.25
2019-03-28T11:52:54.857Z,90.00
2019-03-28T11:53:54.852Z,90.00
2019-03-28T11:54:54.845Z,84.37
2019-03-28T11:55:54.841Z,61.87
2019-03-28T11:56:54.834Z,50.62
2019-03-28T11:57:56.461Z,50.62
2019-03-28T11:58:54.819Z,67.50
2019-03-28T11:59:57.875Z,56.25
2019-03-28T12:00:54.807Z,56.25
2019-03-28T12:02:01.996Z,73.12
2019-03-28T12:03:22.522Z,67.50
2019-03-28T12:04:22.517Z,50.62
2019-03-28T12:05:22.516Z,50.62
2019-03-28T12:06:22.506Z,56.25
2019-03-28T12:07:22.551Z,56.25
2019-03-28T12:08:22.491Z,45.00
2019-03-28T12:09:22.483Z,45.00
2019-03-28T12:10:22.479Z,61.87
2019-03-28T12:11:22.471Z,56.25
2019-03-28T12:12:22.466Z,45.00
2019-03-28T12:13:22.460Z,56.25
2019-03-28T12:14:22.456Z,56.25
2019-03-28T12:15:22.447Z,56.25
2019-03-28T12:16:22.444Z,67.50
2019-03-28T12:17:22.437Z,73.12
2019-03-28T12:18:24.911Z,78.75
2019-03-28T12:19:22.424Z,73.12
2019-03-28T12:20:22.415Z,73.12
2019-03-28T12:21:22.410Z,73.12
2019-03-28T12:22:22.402Z,67.50
2019-03-28T12:23:22.616Z,61.87
2019-03-28T12:24:22.391Z,56.25
2019-03-28T12:25:22.382Z,56.25
2019-03-28T12:26:22.376Z,50.62
2019-03-28T12:27:22.371Z,45.00
2019-03-28T12:28:22.363Z,39.37
2019-03-28T12:29:22.355Z,39.37
2019-03-28T12:30:22.349Z,45.00
2019-03-28T12:31:22.344Z,50.62
2019-03-28T12:32:22.336Z,50.62
2019-03-28T12:33:22.330Z,50.62
2019-03-28T12:34:22.328Z,50.62
2019-03-28T12:35:22.338Z,50.62
2019-03-28T12:36:22.339Z,56.25
2019-03-28T12:37:22.328Z,61.87
2019-03-28T12:38:22.325Z,56.25
2019-03-28T12:39:22.315Z,61.87
2019-03-28T12:40:22.312Z,61.87
2019-03-28T12:41:22.301Z,67.50
2019-03-28T12:42:22.293Z,67.50
2019-03-28T12:43:22.290Z,73.12
2019-03-28T12:44:22.282Z,73.12
2019-03-28T12:45:22.275Z,61.87
2019-03-28T12:46:25.473Z,67.50
2019-03-28T12:47:22.258Z,67.50
2019-03-28T12:48:22.269Z,73.12
2019-03-28T12:49:22.246Z,73.12
2019-03-28T12:50:22.243Z,78.75
2019-03-28T12:51:22.387Z,73.12
2019-03-28T12:52:22.226Z,67.50
2019-03-28T12:53:22.216Z,61.87
2019-03-28T12:54:22.214Z,61.87
2019-03-28T12:55:22.204Z,61.87
2019-03-28T12:56:22.203Z,56.25
2019-03-28T12:57:22.195Z,56.25
2019-03-28T12:58:22.477Z,56.25
2019-03-28T12:59:22.180Z,56.25
2019-03-28T13:00:22.171Z,56.25
2019-03-28T13:01:22.185Z,56.25
2019-03-28T13:02:30.033Z,61.87
2019-03-28T13:03:49.898Z,67.50
2019-03-28T13:04:49.892Z,61.87
2019-03-28T13:05:49.889Z,56.25
2019-03-28T13:06:49.882Z,50.62
2019-03-28T13:07:49.877Z,50.62
2019-03-28T13:08:49.872Z,45.00